Time;durP1;ratioP1;P1;durP2;ratioP2;P2;SDS_P1;SDS_P2;PMS_P1;PMS_P2;Temp;Humidity;BMP_temperature;BMP_pressure;BME280_temperature;BME280_humidity;BME280_pressure;Samples;Min_cycle;Max_cycle;Signal;HPM_P1;HPM_P2
2022/04/08 00:02:12;;;;;;;47.85;18.25;;;7.20;99.90;;;;;;602459;237;26593;-65
2022/04/08 00:04:37;;;;;;;24.70;12.27;;;7.40;99.10;;;;;;602152;238;26651;-65
2022/04/08 00:07:05;;;;;;;20.85;9.38;;;7.40;99.40;;;;;;602110;239;26608;-65
2022/04/08 00:09:33;;;;;;;91.10;35.92;;;7.40;99.30;;;;;;602039;239;26618;-66
2022/04/08 00:12:00;;;;;;;15.57;6.32;;;7.40;99.70;;;;;;602100;239;26592;-65
2022/04/08 00:14:27;;;;;;;26.48;11.90;;;7.40;99.30;;;;;;601987;239;26818;-65
2022/04/08 00:16:54;;;;;;;8.38;4.18;;;7.40;99.70;;;;;;601818;238;26610;-65
2022/04/08 00:19:21;;;;;;;96.57;36.95;;;7.40;99.90;;;;;;601764;239;26830;-65
2022/04/08 00:21:49;;;;;;;7.07;3.33;;;7.30;99.90;;;;;;601830;239;26810;-65
2022/04/08 00:24:17;;;;;;;28.15;12.95;;;7.40;99.70;;;;;;601755;239;26836;-66
2022/04/08 00:26:44;;;;;;;22.52;10.45;;;7.30;99.80;;;;;;601803;238;26608;-66
2022/04/08 00:29:10;;;;;;;35.90;16.17;;;7.30;99.90;;;;;;601748;238;26823;-66
2022/04/08 00:31:38;;;;;;;9.48;5.25;;;7.30;99.90;;;;;;601800;239;26606;-66
2022/04/08 00:34:05;;;;;;;28.38;13.43;;;7.20;99.90;;;;;;601542;239;26961;-66
2022/04/08 00:36:32;;;;;;;5.93;3.22;;;7.10;99.90;;;;;;601494;237;26638;-65
2022/04/08 00:38:59;;;;;;;52.47;21.98;;;7.00;99.90;;;;;;601494;233;26936;-67
2022/04/08 00:41:26;;;;;;;3.83;2.40;;;6.80;99.90;;;;;;601525;237;26638;-67
2022/04/08 00:43:54;;;;;;;24.50;11.40;;;6.60;99.90;;;;;;601493;238;26650;-68
2022/04/08 00:46:22;;;;;;;36.97;16.17;;;6.40;99.90;;;;;;601550;239;26636;-66
2022/04/08 00:48:50;;;;;;;80.57;31.62;;;6.40;99.90;;;;;;601420;237;26618;-67
2022/04/08 00:51:17;;;;;;;42.83;20.08;;;6.50;99.90;;;;;;601595;239;26644;-66
2022/04/08 00:53:46;;;;;;;58.53;25.75;;;6.40;99.90;;;;;;601561;237;26636;-66
2022/04/08 00:56:13;;;;;;;13.40;6.57;;;6.60;99.90;;;;;;601581;237;26642;-67
2022/04/08 00:58:41;;;;;;;62.40;27.35;;;6.60;99.90;;;;;;601518;237;26630;-67
2022/04/08 01:01:08;;;;;;;5.30;2.20;;;6.60;99.90;;;;;;601582;237;26664;-67
2022/04/08 01:03:35;;;;;;;29.40;14.27;;;6.60;99.90;;;;;;601483;239;26912;-68
2022/04/08 01:06:02;;;;;;;45.83;21.77;;;6.70;99.90;;;;;;601489;238;26685;-68
2022/04/08 01:08:30;;;;;;;36.15;14.77;;;6.70;99.90;;;;;;602198;237;26843;-66
2022/04/08 01:10:57;;;;;;;37.05;16.45;;;6.70;99.90;;;;;;602833;236;26625;-67
2022/04/08 01:13:24;;;;;;;22.00;10.02;;;6.80;99.90;;;;;;602515;237;26872;-66
2022/04/08 01:15:52;;;;;;;15.68;7.53;;;6.80;99.90;;;;;;602342;237;26656;-66
2022/04/08 01:18:19;;;;;;;17.92;8.95;;;6.80;99.90;;;;;;602135;239;26846;-66
2022/04/08 01:20:46;;;;;;;9.35;5.45;;;6.90;99.90;;;;;;601973;239;26582;-66
2022/04/08 01:23:15;;;;;;;2.47;2.12;;;6.90;99.90;;;;;;602116;239;26585;-67
2022/04/08 01:25:42;;;;;;;7.65;4.10;;;6.90;99.90;;;;;;601897;239;26628;-67
2022/04/08 01:28:09;;;;;;;3.50;2.15;;;6.90;99.80;;;;;;601794;238;26817;-67
2022/04/08 01:30:36;;;;;;;44.08;20.15;;;6.90;99.90;;;;;;601795;237;26581;-67
2022/04/08 01:33:03;;;;;;;20.62;9.15;;;6.90;99.90;;;;;;601759;238;26819;-67
2022/04/08 01:35:31;;;;;;;3.45;2.28;;;7.00;99.90;;;;;;601750;239;26610;-67
2022/04/08 01:37:58;;;;;;;3.05;1.95;;;7.00;99.90;;;;;;601821;239;26950;-66
2022/04/08 01:40:26;;;;;;;25.15;11.55;;;7.10;99.90;;;;;;601813;239;26590;-66
2022/04/08 01:42:54;;;;;;;50.83;22.05;;;7.10;99.70;;;;;;601770;239;26581;-65
2022/04/08 01:45:22;;;;;;;4.68;2.90;;;7.00;99.90;;;;;;601541;239;26671;-65
2022/04/08 01:47:49;;;;;;;38.42;18.25;;;7.00;99.90;;;;;;601518;239;26613;-67
2022/04/08 01:50:18;;;;;;;36.65;16.30;;;7.00;99.90;;;;;;601516;237;26621;-67
2022/04/08 01:52:43;;;;;;;10.63;6.50;;;7.00;99.50;;;;;;601401;239;26653;-65
2022/04/08 01:55:10;;;;;;;5.62;2.45;;;7.00;99.80;;;;;;601522;238;26644;-65
2022/04/08 01:57:38;;;;;;;2.62;1.30;;;7.00;99.30;;;;;;601517;239;26869;-66
2022/04/08 02:00:06;;;;;;;7.10;3.95;;;7.00;99.30;;;;;;601503;237;26648;-65
2022/04/08 02:02:33;;;;;;;17.23;8.43;;;7.00;99.60;;;;;;601509;239;26615;-66
2022/04/08 02:05:00;;;;;;;22.67;10.30;;;7.00;99.80;;;;;;601519;237;26846;-66
2022/04/08 02:07:27;;;;;;;39.53;18.67;;;7.00;99.90;;;;;;601535;239;26656;-66
2022/04/08 02:09:55;;;;;;;3.45;1.92;;;7.00;99.30;;;;;;601509;238;26859;-66
2022/04/08 02:12:22;;;;;;;2.50;1.77;;;7.10;99.10;;;;;;601539;237;26652;-66
2022/04/08 02:14:49;;;;;;;20.90;9.10;;;7.10;98.90;;;;;;601592;235;27271;-66
2022/04/08 02:17:17;;;;;;;5.35;2.40;;;7.10;98.90;;;;;;612429;234;26676;-66
2022/04/08 02:19:43;;;;;;;4.47;2.12;;;7.10;98.90;;;;;;612938;232;26652;-66
2022/04/08 02:22:11;;;;;;;37.95;17.25;;;7.10;98.70;;;;;;613919;234;26648;-66
2022/04/08 02:24:39;;;;;;;42.25;19.20;;;7.10;98.60;;;;;;613429;234;26578;-66
2022/04/08 02:27:07;;;;;;;8.60;4.22;;;7.10;98.10;;;;;;613373;234;26599;-66
2022/04/08 02:29:34;;;;;;;22.27;11.02;;;7.10;98.10;;;;;;613169;234;27025;-66
2022/04/08 02:32:02;;;;;;;21.80;10.55;;;7.10;98.10;;;;;;613060;234;26871;-66
2022/04/08 02:34:29;;;;;;;5.30;3.17;;;7.10;98.20;;;;;;612989;234;26597;-66
2022/04/08 02:36:56;;;;;;;9.73;5.18;;;7.20;97.60;;;;;;613065;235;26660;-66
2022/04/08 02:39:24;;;;;;;12.15;6.15;;;7.20;97.60;;;;;;612788;235;26572;-66
2022/04/08 02:41:52;;;;;;;7.37;3.85;;;7.20;97.90;;;;;;612782;235;26584;-66
2022/04/08 02:44:20;;;;;;;27.48;13.32;;;7.20;97.60;;;;;;612705;234;26836;-66
2022/04/08 02:46:47;;;;;;;25.10;11.93;;;7.20;97.00;;;;;;612754;235;26630;-66
2022/04/08 02:49:14;;;;;;;12.60;6.93;;;7.20;97.10;;;;;;612752;234;26859;-66
2022/04/08 02:51:41;;;;;;;30.83;14.35;;;7.20;96.70;;;;;;612803;235;26584;-66
2022/04/08 02:54:10;;;;;;;15.57;7.87;;;7.20;96.70;;;;;;612736;235;26902;-66
2022/04/08 02:56:39;;;;;;;6.03;3.35;;;7.20;96.70;;;;;;612537;235;26598;-66
2022/04/08 02:59:03;;;;;;;10.57;5.43;;;7.20;96.70;;;;;;612452;235;26641;-66
2022/04/08 03:01:31;;;;;;;17.87;9.40;;;7.30;96.70;;;;;;612545;235;26624;-66
2022/04/08 03:03:59;;;;;;;30.12;14.43;;;7.30;96.70;;;;;;612492;230;26643;-66
2022/04/08 03:06:26;;;;;;;12.02;6.72;;;7.20;96.30;;;;;;612526;234;26660;-66
2022/04/08 03:08:53;;;;;;;3.87;2.10;;;7.20;96.40;;;;;;612480;235;27121;-66
2022/04/08 03:11:20;;;;;;;18.25;8.93;;;7.30;96.50;;;;;;612506;234;26891;-66
2022/04/08 03:13:47;;;;;;;13.43;6.82;;;7.30;96.80;;;;;;612450;235;26879;-66
2022/04/08 03:16:15;;;;;;;15.30;8.77;;;7.20;97.10;;;;;;612478;234;26671;-66
2022/04/08 03:18:43;;;;;;;14.63;7.32;;;7.20;97.00;;;;;;612466;235;27278;-66
2022/04/08 03:21:10;;;;;;;14.73;8.15;;;7.20;97.00;;;;;;612436;235;26648;-66
2022/04/08 03:23:39;;;;;;;13.70;6.57;;;7.30;96.50;;;;;;612432;234;26636;-66
2022/04/08 03:26:06;;;;;;;6.47;4.32;;;7.30;96.60;;;;;;612291;235;26659;-66
2022/04/08 03:28:33;;;;;;;14.15;8.23;;;7.30;96.60;;;;;;612456;235;26646;-66
2022/04/08 03:31:01;;;;;;;15.25;6.72;;;7.20;96.50;;;;;;612691;232;26644;-66
2022/04/08 03:33:27;;;;;;;7.60;3.92;;;7.30;96.30;;;;;;614032;233;26819;-66
2022/04/08 03:35:54;;;;;;;7.72;4.20;;;7.30;96.30;;;;;;613546;234;26602;-65
2022/04/08 03:38:22;;;;;;;6.75;3.58;;;7.30;96.10;;;;;;613320;234;26831;-66
2022/04/08 03:40:50;;;;;;;6.12;3.15;;;7.30;96.30;;;;;;613225;234;26570;-66
2022/04/08 03:43:18;;;;;;;1.67;1.45;;;7.30;96.50;;;;;;612993;235;26643;-66
2022/04/08 03:45:45;;;;;;;4.28;2.28;;;7.30;96.50;;;;;;613132;234;26651;-65
2022/04/08 03:48:12;;;;;;;8.95;5.50;;;7.20;97.90;;;;;;613000;235;26637;-65
2022/04/08 03:50:39;;;;;;;10.13;5.00;;;7.00;99.90;;;;;;612821;234;26798;-66
2022/04/08 03:53:09;;;;;;;20.45;10.63;;;6.70;99.90;;;;;;612781;234;26597;-65
2022/04/08 03:55:34;;;;;;;5.80;3.15;;;6.70;99.90;;;;;;612722;234;26837;-65
2022/04/08 03:58:01;;;;;;;0.90;0.90;;;6.70;99.90;;;;;;612744;235;26580;-65
2022/04/08 04:00:28;;;;;;;18.73;9.82;;;6.70;99.90;;;;;;612778;234;26552;-65
2022/04/08 04:02:55;;;;;;;11.50;5.85;;;6.60;99.90;;;;;;612782;235;26618;-65
2022/04/08 04:05:23;;;;;;;2.70;1.80;;;6.60;99.90;;;;;;612656;234;26855;-65
2022/04/08 04:07:50;;;;;;;8.57;4.97;;;6.60;99.90;;;;;;612659;234;27369;-66
2022/04/08 04:10:18;;;;;;;1.10;1.00;;;6.60;99.90;;;;;;612492;235;26615;-65
2022/04/08 04:12:46;;;;;;;17.08;9.77;;;6.60;99.90;;;;;;612541;235;26563;-66
2022/04/08 04:15:15;;;;;;;10.15;5.78;;;6.50;99.90;;;;;;612450;234;26624;-66
2022/04/08 04:17:41;;;;;;;0.88;0.88;;;6.50;99.90;;;;;;612449;235;26640;-73
2022/04/08 04:20:09;;;;;;;0.90;0.80;;;6.50;99.90;;;;;;612503;235;26639;-74
2022/04/08 04:22:36;;;;;;;5.80;4.00;;;6.60;99.90;;;;;;612459;234;26823;-74
2022/04/08 04:25:05;;;;;;;4.07;2.75;;;6.50;99.90;;;;;;612424;234;26634;-73
2022/04/08 04:27:32;;;;;;;0.98;0.98;;;6.50;99.90;;;;;;612498;234;26614;-73
2022/04/08 04:29:59;;;;;;;6.62;3.65;;;6.40;99.90;;;;;;612533;235;27208;-75
2022/04/08 04:32:26;;;;;;;2.17;1.33;;;6.30;99.60;;;;;;612433;234;26661;-74
2022/04/08 04:34:53;;;;;;;2.00;1.08;;;6.30;98.40;;;;;;612411;234;26657;-74
2022/04/08 04:37:21;;;;;;;1.92;1.20;;;6.20;97.90;;;;;;612466;234;26622;-74
2022/04/08 04:39:48;;;;;;;3.62;2.60;;;6.20;98.10;;;;;;612474;235;26642;-74
2022/04/08 04:42:16;;;;;;;13.82;7.50;;;6.20;97.60;;;;;;612455;235;26587;-74
2022/04/08 04:44:43;;;;;;;14.18;7.65;;;6.20;97.90;;;;;;614130;232;26845;-74
2022/04/08 04:47:10;;;;;;;6.15;2.75;;;6.10;98.10;;;;;;613591;234;26610;-74
2022/04/08 04:49:37;;;;;;;6.68;2.95;;;6.00;98.30;;;;;;613381;234;26838;-74
2022/04/08 04:52:06;;;;;;;4.20;2.53;;;5.90;98.20;;;;;;613235;234;26584;-73
2022/04/08 04:54:33;;;;;;;7.68;3.87;;;5.80;98.10;;;;;;613415;235;26608;-74
2022/04/08 04:57:00;;;;;;;3.00;1.90;;;5.80;97.70;;;;;;613410;234;26859;-74
2022/04/08 04:59:28;;;;;;;14.85;8.88;;;5.80;98.50;;;;;;613433;234;26601;-74
2022/04/08 05:01:55;;;;;;;3.55;2.70;;;5.70;98.40;;;;;;613213;234;26543;-74
2022/04/08 05:04:23;;;;;;;16.08;8.88;;;5.70;98.70;;;;;;613137;235;26564;-74
2022/04/08 05:06:51;;;;;;;3.12;1.83;;;5.70;98.00;;;;;;613124;234;26597;-74
2022/04/08 05:09:18;;;;;;;10.27;5.03;;;5.70;98.00;;;;;;613129;235;26792;-74
2022/04/08 05:11:45;;;;;;;8.65;4.93;;;5.70;98.30;;;;;;613145;234;26548;-74
2022/04/08 05:14:12;;;;;;;15.93;8.60;;;5.60;98.60;;;;;;612803;234;26897;-74
2022/04/08 05:16:40;;;;;;;2.28;1.50;;;5.70;98.50;;;;;;612753;235;26615;-74
2022/04/08 05:19:07;;;;;;;2.10;1.77;;;5.70;98.60;;;;;;612661;234;26830;-74
2022/04/08 05:21:34;;;;;;;8.65;4.22;;;5.80;99.10;;;;;;612493;235;26650;-73
2022/04/08 05:24:02;;;;;;;9.45;4.82;;;5.80;98.90;;;;;;612439;234;26855;-73
2022/04/08 05:26:29;;;;;;;15.80;8.27;;;5.90;98.90;;;;;;612431;234;26640;-73
2022/04/08 05:28:56;;;;;;;7.50;4.43;;;5.90;98.90;;;;;;612446;234;26633;-73
2022/04/08 05:31:24;;;;;;;9.18;5.00;;;6.00;99.20;;;;;;612441;230;26586;-74
2022/04/08 05:33:52;;;;;;;11.45;6.95;;;6.00;99.10;;;;;;612411;234;26625;-74
2022/04/08 05:36:19;;;;;;;5.57;3.47;;;6.00;99.10;;;;;;612445;234;26637;-74
2022/04/08 05:38:46;;;;;;;6.93;3.83;;;6.10;99.20;;;;;;612600;234;26584;-74
2022/04/08 05:41:14;;;;;;;2.22;1.98;;;6.10;99.20;;;;;;612535;230;27319;-74
2022/04/08 05:43:44;;;;;;;3.78;2.60;;;6.20;99.40;;;;;;612480;235;26625;-75
2022/04/08 05:46:08;;;;;;;7.15;4.10;;;6.20;99.20;;;;;;612416;234;26625;-74
2022/04/08 05:48:36;;;;;;;3.37;2.78;;;6.10;99.50;;;;;;612462;234;26667;-74
2022/04/08 05:51:04;;;;;;;6.55;3.67;;;6.20;99.50;;;;;;612495;234;26831;-74
2022/04/08 05:53:32;;;;;;;2.83;2.15;;;6.20;99.70;;;;;;612448;234;26971;-74
2022/04/08 05:55:59;;;;;;;12.90;7.47;;;6.20;99.70;;;;;;613905;232;26894;-74
2022/04/08 05:58:26;;;;;;;8.07;4.55;;;6.20;99.90;;;;;;613666;233;26570;-74
2022/04/08 06:00:53;;;;;;;4.57;2.87;;;6.20;99.50;;;;;;613360;234;27125;-75
2022/04/08 06:03:21;;;;;;;5.55;3.97;;;6.30;99.60;;;;;;613282;234;26588;-76
2022/04/08 06:05:49;;;;;;;4.78;2.55;;;6.20;99.80;;;;;;612996;234;26649;-75
2022/04/08 06:08:16;;;;;;;10.10;4.93;;;6.20;99.80;;;;;;613109;234;26851;-74
2022/04/08 06:10:44;;;;;;;11.80;6.85;;;6.20;99.90;;;;;;613068;234;26642;-74
2022/04/08 06:13:12;;;;;;;3.20;2.45;;;6.30;99.70;;;;;;612913;235;26965;-75
2022/04/08 06:15:39;;;;;;;8.48;4.68;;;6.50;99.90;;;;;;612771;234;26598;-74
2022/04/08 06:18:09;;;;;;;7.68;4.55;;;6.40;99.80;;;;;;612697;234;26568;-75
2022/04/08 06:20:35;;;;;;;5.90;3.70;;;6.40;99.80;;;;;;612629;234;26820;-75
2022/04/08 06:23:02;;;;;;;12.80;6.50;;;6.30;99.70;;;;;;612752;235;26579;-75
2022/04/08 06:25:29;;;;;;;10.88;6.50;;;6.40;99.50;;;;;;612661;234;26792;-74
2022/04/08 06:27:58;;;;;;;5.97;4.32;;;6.40;99.50;;;;;;612776;235;26574;-75
2022/04/08 06:30:25;;;;;;;8.35;5.05;;;6.50;99.30;;;;;;612702;230;26583;-75
2022/04/08 06:32:52;;;;;;;9.73;6.07;;;6.50;99.20;;;;;;612521;234;26642;-76
2022/04/08 06:35:20;;;;;;;8.70;5.62;;;6.50;99.20;;;;;;612427;235;26810;-75
2022/04/08 06:37:47;;;;;;;8.15;4.72;;;6.70;99.10;;;;;;612457;235;26634;-75
2022/04/08 06:40:14;;;;;;;10.82;6.53;;;7.00;98.50;;;;;;612473;234;26819;-74
2022/04/08 06:42:42;;;;;;;8.68;5.05;;;6.70;98.60;;;;;;612451;234;26625;-75
2022/04/08 06:45:10;;;;;;;5.43;2.45;;;6.30;99.90;;;;;;612463;235;26569;-74
2022/04/08 06:47:45;;;;;;;8.15;5.32;;;3.90;99.90;;;;;;612499;235;26568;-72
2022/04/08 06:50:12;;;;;;;11.05;6.15;;;3.90;99.90;;;;;;612386;235;26831;-77
2022/04/08 06:52:39;;;;;;;21.90;7.70;;;3.70;99.90;;;;;;612469;234;26676;-72
2022/04/08 06:55:07;;;;;;;8.70;5.55;;;3.70;99.90;;;;;;612442;231;26802;-71
2022/04/08 06:57:34;;;;;;;12.60;6.60;;;3.80;99.90;;;;;;612499;235;26620;-72
2022/04/08 07:00:03;;;;;;;11.93;6.05;;;3.50;99.90;;;;;;612502;234;26838;-71
2022/04/08 07:02:29;;;;;;;9.55;5.40;;;3.30;99.90;;;;;;612388;234;26630;-71
2022/04/08 07:04:56;;;;;;;8.75;4.62;;;3.20;99.90;;;;;;612416;234;26575;-70
2022/04/08 07:07:35;;;;;;;8.93;5.05;;;3.00;99.90;;;;;;613809;232;26673;-71
2022/04/08 07:10:02;;;;;;;9.48;5.18;;;3.00;99.90;;;;;;613643;233;27129;-71
2022/04/08 07:12:30;;;;;;;11.85;4.82;;;3.00;99.90;;;;;;613409;234;26584;-71
2022/04/08 07:14:58;;;;;;;10.02;5.30;;;3.20;99.90;;;;;;613268;229;26556;-71
2022/04/08 07:17:27;;;;;;;9.68;5.62;;;3.40;99.90;;;;;;612985;234;26638;-71
2022/04/08 07:19:54;;;;;;;9.95;5.10;;;3.40;99.90;;;;;;613067;234;27202;-71
2022/04/08 07:22:22;;;;;;;7.87;5.03;;;3.70;99.90;;;;;;613053;234;26620;-71
2022/04/08 07:24:50;;;;;;;8.73;5.57;;;4.00;99.90;;;;;;612831;234;26589;-71
2022/04/08 07:27:18;;;;;;;8.20;5.20;;;4.10;99.90;;;;;;612708;230;26627;-71
2022/04/08 07:29:46;;;;;;;12.75;5.55;;;4.10;99.90;;;;;;612756;235;26918;-70
2022/04/08 07:32:20;;;;;;;8.23;5.03;;;4.40;99.90;;;;;;612732;234;26566;-70
2022/04/08 07:34:43;;;;;;;6.40;4.32;;;4.60;99.90;;;;;;612127;235;26597;-70
2022/04/08 07:37:09;;;;;;;4.93;3.50;;;5.00;99.90;;;;;;612917;234;26657;-71
2022/04/08 07:39:41;;;;;;;11.38;4.15;;;4.90;99.90;;;;;;612740;234;26596;-70
2022/04/08 07:42:04;;;;;;;7.40;4.00;;;4.90;99.90;;;;;;612617;234;26572;-70
2022/04/08 07:44:31;;;;;;;3.80;2.62;;;4.90;99.90;;;;;;612450;235;26629;-70
2022/04/08 07:46:58;;;;;;;6.12;4.25;;;4.90;99.90;;;;;;612462;234;26930;-70
2022/04/08 07:49:25;;;;;;;4.60;3.22;;;5.00;99.90;;;;;;612493;234;26660;-70
2022/04/08 07:51:52;;;;;;;7.78;4.47;;;4.70;99.90;;;;;;612440;235;26896;-71
2022/04/08 07:54:21;;;;;;;6.75;3.97;;;4.70;99.90;;;;;;612507;234;26555;-70
2022/04/08 07:56:48;;;;;;;4.22;3.10;;;4.90;99.90;;;;;;612443;234;26643;-71
2022/04/08 07:59:17;;;;;;;8.20;3.97;;;5.10;99.90;;;;;;612499;234;26621;-73
2022/04/08 08:01:44;;;;;;;5.35;3.22;;;5.00;99.90;;;;;;612432;234;26867;-72
2022/04/08 08:04:11;;;;;;;10.95;4.00;;;5.20;99.90;;;;;;612503;234;26583;-71
2022/04/08 08:06:38;;;;;;;10.98;4.62;;;5.40;99.90;;;;;;612470;234;26867;-72
2022/04/08 08:09:05;;;;;;;9.38;3.70;;;5.40;99.90;;;;;;612492;235;26583;-71
2022/04/08 08:11:33;;;;;;;16.15;4.57;;;5.50;99.90;;;;;;612448;234;27101;-72
2022/04/08 08:14:01;;;;;;;11.60;3.62;;;5.70;99.90;;;;;;604600;235;26606;-72
2022/04/08 08:16:28;;;;;;;11.38;3.65;;;5.80;99.90;;;;;;602976;235;26658;-72
2022/04/08 08:18:57;;;;;;;5.28;3.35;;;5.90;99.90;;;;;;605545;235;26597;-72
2022/04/08 08:21:24;;;;;;;6.62;3.47;;;5.90;99.90;;;;;;607069;235;26866;-72
2022/04/08 08:23:51;;;;;;;5.57;3.20;;;6.10;99.90;;;;;;605118;237;26594;-73
2022/04/08 08:26:18;;;;;;;8.85;2.65;;;6.40;99.90;;;;;;603698;237;26863;-72
2022/04/08 08:28:45;;;;;;;4.93;2.90;;;6.50;99.90;;;;;;604341;238;26624;-73
2022/04/08 08:31:15;;;;;;;8.93;3.10;;;6.70;99.40;;;;;;607465;236;26847;-73
2022/04/08 08:33:42;;;;;;;4.53;3.00;;;6.90;98.10;;;;;;608175;236;26593;-73
2022/04/08 08:36:08;;;;;;;4.87;2.90;;;7.20;96.00;;;;;;603413;235;26632;-71
2022/04/08 08:38:36;;;;;;;87.80;15.43;;;7.20;95.90;;;;;;604283;238;26880;-71
2022/04/08 08:41:03;;;;;;;1999.90;498.25;;;7.20;94.50;;;;;;604290;237;26581;-72
2022/04/08 08:43:30;;;;;;;1999.90;755.33;;;7.40;94.60;;;;;;604522;238;26591;-73
2022/04/08 08:45:57;;;;;;;1999.90;786.50;;;7.20;93.90;;;;;;604470;237;26616;-71
2022/04/08 08:48:25;;;;;;;81.70;21.50;;;7.60;92.70;;;;;;604533;238;26570;-73
2022/04/08 08:50:55;;;;;;;71.32;18.83;;;7.60;92.70;;;;;;604677;238;26599;-72
2022/04/08 08:53:21;;;;;;;76.82;16.23;;;7.60;90.20;;;;;;604655;235;26591;-72
2022/04/08 08:55:49;;;;;;;55.25;13.90;;;7.50;90.20;;;;;;604921;234;26917;-71
2022/04/08 08:58:15;;;;;;;61.22;13.73;;;7.50;91.20;;;;;;602412;237;26630;-64
2022/04/08 09:00:43;;;;;;;42.80;12.02;;;7.40;90.70;;;;;;604326;235;26844;-65
2022/04/08 09:03:10;;;;;;;35.15;10.57;;;7.20;91.50;;;;;;602499;237;26649;-64
2022/04/08 09:05:43;;;;;;;43.35;11.55;;;7.40;91.70;;;;;;604118;236;26853;-65
2022/04/08 09:08:10;;;;;;;41.15;11.35;;;7.50;90.20;;;;;;609772;236;26635;-66
2022/04/08 09:10:39;;;;;;;39.47;11.05;;;7.40;90.60;;;;;;609170;235;26570;-65
2022/04/08 09:13:05;;;;;;;31.27;10.45;;;7.50;89.00;;;;;;606625;236;26614;-65
2022/04/08 09:15:36;;;;;;;28.30;8.82;;;7.80;90.30;;;;;;606445;236;26810;-65
2022/04/08 09:18:07;;;;;;;21.17;7.87;;;8.10;89.00;;;;;;605272;231;26599;-65
2022/04/08 09:20:44;;;;;;;24.83;7.82;;;8.60;88.30;;;;;;604892;238;26554;-65
2022/04/08 09:23:10;;;;;;;16.70;7.47;;;8.80;88.80;;;;;;603672;238;26602;-64
2022/04/08 09:25:39;;;;;;;15.75;5.60;;;9.10;87.90;;;;;;603404;234;26693;-66
2022/04/08 09:28:06;;;;;;;15.15;5.37;;;9.10;87.60;;;;;;602925;238;26980;-65
2022/04/08 09:30:33;;;;;;;13.40;4.65;;;8.60;87.80;;;;;;605902;235;26577;-65
2022/04/08 09:33:00;;;;;;;13.77;3.60;;;8.50;89.10;;;;;;604691;236;26916;-65
2022/04/08 09:35:27;;;;;;;8.45;3.53;;;9.00;89.80;;;;;;605290;235;26628;-74
2022/04/08 09:37:59;;;;;;;9.68;3.42;;;9.20;84.50;;;;;;606985;235;26919;-74
2022/04/08 09:40:27;;;;;;;8.90;3.25;;;9.30;86.00;;;;;;602646;237;26581;-74
2022/04/08 09:42:54;;;;;;;9.95;2.30;;;9.30;84.60;;;;;;605029;237;26615;-73
2022/04/08 09:45:27;;;;;;;5.25;2.45;;;9.20;83.90;;;;;;605196;234;26636;-73
2022/04/08 09:47:54;;;;;;;5.03;1.92;;;9.00;81.20;;;;;;602841;237;26581;-74
2022/04/08 09:50:21;;;;;;;6.47;2.22;;;9.00;81.00;;;;;;602349;236;26573;-74
2022/04/08 09:52:48;;;;;;;4.62;1.98;;;9.10;80.00;;;;;;607986;236;26883;-73
2022/04/08 09:55:16;;;;;;;8.52;1.92;;;9.40;81.10;;;;;;604012;236;26601;-73
2022/04/08 09:57:43;;;;;;;5.78;2.00;;;9.90;83.00;;;;;;602875;238;27214;-72
2022/04/08 10:00:10;;;;;;;6.10;1.92;;;9.70;75.20;;;;;;608606;236;26609;-73
2022/04/08 10:02:40;;;;;;;5.22;1.90;;;9.50;75.90;;;;;;608014;234;26595;-64
2022/04/08 10:05:08;;;;;;;3.08;1.85;;;9.50;75.50;;;;;;604945;236;26608;-65
2022/04/08 10:07:36;;;;;;;2.30;1.27;;;9.10;76.00;;;;;;605392;235;26589;-65
2022/04/08 10:10:23;;;;;;;5.40;1.60;;;9.20;76.60;;;;;;604294;237;26542;-65
2022/04/08 10:13:16;;;;;;;4.55;1.98;;;9.20;76.70;;;;;;613034;234;26554;-67
2022/04/08 10:15:43;;;;;;;8.05;2.67;;;9.10;76.60;;;;;;604656;236;26590;-65
2022/04/08 10:18:11;;;;;;;8.32;2.37;;;9.30;78.10;;;;;;604491;236;27083;-65
2022/04/08 10:20:38;;;;;;;14.35;2.45;;;9.40;76.60;;;;;;609926;235;26552;-66
2022/04/08 10:23:08;;;;;;;3.28;1.85;;;9.50;76.90;;;;;;609992;236;26555;-65
2022/04/08 10:25:42;;;;;;;5.97;1.60;;;9.50;75.60;;;;;;609858;236;26581;-66
2022/04/08 10:28:09;;;;;;;10.80;1.90;;;9.50;76.20;;;;;;609959;236;26550;-65
2022/04/08 10:30:44;;;;;;;6.68;1.87;;;9.40;75.80;;;;;;610066;235;26825;-65
2022/04/08 10:33:13;;;;;;;3.72;1.60;;;9.30;76.80;;;;;;610075;236;26562;-65
2022/04/08 10:35:38;;;;;;;7.12;1.67;;;9.40;76.10;;;;;;609847;236;26862;-65
2022/04/08 10:38:06;;;;;;;3.25;1.40;;;9.50;74.80;;;;;;610000;235;26584;-66
2022/04/08 10:40:33;;;;;;;2.95;1.62;;;9.30;73.00;;;;;;610224;233;26657;-65
2022/04/08 10:43:02;;;;;;;3.87;1.50;;;10.20;69.70;;;;;;611573;234;26645;-65
2022/04/08 10:45:30;;;;;;;4.47;1.65;;;10.30;69.80;;;;;;610931;235;26915;-65
2022/04/08 10:48:01;;;;;;;4.47;1.83;;;10.30;69.20;;;;;;610876;235;26580;-65
2022/04/08 10:50:29;;;;;;;5.20;1.40;;;10.30;69.90;;;;;;610494;235;26552;-65
2022/04/08 10:53:02;;;;;;;3.17;1.30;;;10.20;66.20;;;;;;610444;236;26556;-65
2022/04/08 10:55:30;;;;;;;4.20;1.67;;;10.20;66.20;;;;;;610408;236;26585;-65
2022/04/08 10:57:57;;;;;;;3.15;1.37;;;10.20;66.20;;;;;;610450;235;26572;-65
2022/04/08 11:00:25;;;;;;;2.50;1.05;;;10.30;64.80;;;;;;610217;235;26906;-66
2022/04/08 11:02:55;;;;;;;3.55;1.20;;;10.20;64.20;;;;;;610172;236;26636;-66
2022/04/08 11:05:22;;;;;;;3.47;1.42;;;9.80;67.80;;;;;;610142;236;26623;-65
2022/04/08 11:07:51;;;;;;;3.47;1.45;;;9.90;68.70;;;;;;610227;235;26638;-66
2022/04/08 11:10:18;;;;;;;2.55;1.23;;;9.80;68.60;;;;;;610232;235;26623;-65
2022/04/08 11:12:46;;;;;;;2.50;1.10;;;10.10;69.40;;;;;;610176;235;26638;-65
2022/04/08 11:15:15;;;;;;;2.15;1.27;;;10.20;68.20;;;;;;609913;236;26635;-65
2022/04/08 11:17:42;;;;;;;2.50;1.40;;;10.20;69.10;;;;;;610051;235;26681;-65
2022/04/08 11:20:10;;;;;;;2.00;1.00;;;10.50;68.60;;;;;;609919;235;26844;-66
2022/04/08 11:22:42;;;;;;;1.62;1.12;;;10.90;68.70;;;;;;609885;235;26557;-65
2022/04/08 11:25:09;;;;;;;1.55;1.10;;;10.60;67.90;;;;;;609744;236;26592;-66
2022/04/08 11:27:37;;;;;;;2.60;1.30;;;10.60;68.30;;;;;;609896;235;26580;-65
2022/04/08 11:30:06;;;;;;;2.40;1.25;;;10.30;68.90;;;;;;609870;235;26565;-66
2022/04/08 11:32:34;;;;;;;2.22;0.98;;;10.30;68.80;;;;;;609864;236;26594;-66
2022/04/08 11:35:10;;;;;;;1.62;1.27;;;10.30;69.70;;;;;;609868;236;26594;-66
2022/04/08 11:37:37;;;;;;;1.65;1.23;;;10.30;69.70;;;;;;609899;230;26593;-65
2022/04/08 11:40:06;;;;;;;2.05;1.27;;;10.40;70.20;;;;;;609888;236;26597;-66
2022/04/08 11:42:34;;;;;;;1.92;1.30;;;10.20;71.20;;;;;;609891;236;26573;-65
2022/04/08 11:45:04;;;;;;;3.60;1.60;;;10.10;70.70;;;;;;609905;235;26825;-65
2022/04/08 11:47:29;;;;;;;0.93;0.90;;;10.10;71.30;;;;;;609872;235;26857;-66
2022/04/08 11:50:02;;;;;;;4.85;1.17;;;10.30;69.50;;;;;;609820;236;26593;-65
2022/04/08 11:52:29;;;;;;;1.17;1.05;;;10.50;68.60;;;;;;610395;233;26621;-66
2022/04/08 11:54:59;;;;;;;2.45;1.23;;;10.70;68.60;;;;;;611299;235;26624;-65
2022/04/08 11:57:27;;;;;;;1.98;1.17;;;10.50;68.10;;;;;;610374;235;26631;-64
2022/04/08 11:59:54;;;;;;;1.40;1.30;;;10.40;67.90;;;;;;610776;235;26591;-65
2022/04/08 12:02:22;;;;;;;2.53;1.10;;;10.50;65.20;;;;;;610628;235;26611;-65
2022/04/08 12:04:50;;;;;;;2.53;1.20;;;10.40;65.70;;;;;;610436;236;26576;-65
2022/04/08 12:07:23;;;;;;;2.12;1.02;;;10.40;65.70;;;;;;610479;235;26813;-65
2022/04/08 12:09:53;;;;;;;2.37;1.25;;;10.60;65.60;;;;;;610475;235;26573;-65
2022/04/08 12:12:25;;;;;;;1.25;1.00;;;11.10;63.40;;;;;;610226;235;26616;-65
2022/04/08 12:14:52;;;;;;;2.08;1.20;;;11.10;63.40;;;;;;610145;235;26675;-65
2022/04/08 12:17:20;;;;;;;2.15;0.85;;;10.90;63.80;;;;;;610236;235;26688;-65
2022/04/08 12:19:51;;;;;;;1.80;1.20;;;11.10;66.10;;;;;;610247;235;26640;-63
2022/04/08 12:22:17;;;;;;;3.80;1.20;;;11.10;66.00;;;;;;610223;236;26635;-65
2022/04/08 12:24:44;;;;;;;2.25;1.15;;;11.30;64.50;;;;;;610115;236;26842;-65
2022/04/08 12:27:12;;;;;;;2.55;1.20;;;11.10;65.50;;;;;;610210;235;26641;-64
2022/04/08 12:29:40;;;;;;;1.60;1.10;;;11.30;65.50;;;;;;609961;236;26576;-64
2022/04/08 12:32:12;;;;;;;1.50;1.27;;;11.60;66.10;;;;;;609910;235;26570;-66
2022/04/08 12:34:39;;;;;;;1.58;1.20;;;11.60;65.90;;;;;;609843;236;26901;-66
2022/04/08 12:37:06;;;;;;;2.15;1.17;;;11.80;64.30;;;;;;609828;236;26633;-65
2022/04/08 12:39:34;;;;;;;1.87;1.10;;;11.90;62.90;;;;;;609937;235;26893;-65
2022/04/08 12:42:01;;;;;;;2.55;1.10;;;12.30;62.80;;;;;;609841;236;26566;-65
2022/04/08 12:44:28;;;;;;;2.62;1.30;;;12.10;59.80;;;;;;609910;235;26877;-65
2022/04/08 12:46:56;;;;;;;2.70;1.58;;;11.90;59.60;;;;;;609915;236;26619;-65
2022/04/08 12:49:23;;;;;;;1.48;1.20;;;11.40;60.90;;;;;;609949;235;26587;-65
2022/04/08 12:51:50;;;;;;;1.77;1.50;;;10.70;62.00;;;;;;609893;235;26570;-65
2022/04/08 12:54:18;;;;;;;2.47;1.48;;;10.70;63.30;;;;;;609874;232;26587;-65